Terminal Aerodrome Forecast
Issued by NWS

Home | Current Version | Previous Version | Text Only | Print | Product List | Glossary On
Versions: 1 2 3 4 5 6 7 8 9 10 11 12
000
FTUS43 KJKL 240530
TAFSME
TAF
KSME 240530Z 2406/2506 VRB06KT P6SM SCT100
     FM240700 VRB03KT P6SM SCT030 OVC050
     FM241000 VRB03KT P6SM BKN025 OVC050=

USA.gov is the U.S. government's official web portal to all federal, state and local government web resources and services.